GAP2864 RPVM-RPLL
Flight info
| Callsign | GAP2864 |
|---|---|
| Flight time | N/A |
| Altitude | 36000 |
| Route | MULOP4P MULOP W11 CONDE CONDE3R |
| Aircraft | A321/M-SDE3FGHIRWY/LB1 |
Departure
| Time | 2026-05-01 15:21 |
|---|---|
| Airport | Mactan Cebu International Airport (RPVM) |
Arrival
| Time | N/A |
|---|---|
| Airport | Ninoy Aquino International Airport (RPLL) |
| Time | Latitude | Longitude | Altitude | Speed | Heading |
|---|---|---|---|---|---|
| 2026-05-01 15:07 | 10.31548 | 123.97979 | 36 ft | 0 kts | 314° |
| 2026-05-01 15:11 | 10.31532 | 123.97996 | 36 ft | 2 kts | 309° |
| 2026-05-01 15:11 | 10.31525 | 123.98009 | 36 ft | 2 kts | 291° |
| 2026-05-01 15:12 | 10.31520 | 123.98023 | 36 ft | 2 kts | 278° |
| 2026-05-01 15:12 | 10.31523 | 123.98053 | 36 ft | 2 kts | 250° |
| 2026-05-01 15:12 | 10.31529 | 123.98067 | 36 ft | 2 kts | 236° |
| 2026-05-01 15:13 | 10.31540 | 123.98079 | 36 ft | 0 kts | 225° |
| 2026-05-01 15:15 | 10.31500 | 123.98038 | 36 ft | 7 kts | 226° |
| 2026-05-01 15:15 | 10.31397 | 123.97929 | 36 ft | 9 kts | 225° |
| 2026-05-01 15:16 | 10.31305 | 123.97917 | 36 ft | 8 kts | 136° |
| 2026-05-01 15:16 | 10.31216 | 123.97983 | 36 ft | 6 kts | 190° |
| 2026-05-01 15:17 | 10.31069 | 123.97846 | 36 ft | 23 kts | 225° |
| 2026-05-01 15:18 | 10.30725 | 123.97500 | 36 ft | 22 kts | 225° |
| 2026-05-01 15:18 | 10.30616 | 123.97390 | 36 ft | 21 kts | 224° |
| 2026-05-01 15:19 | 10.30390 | 123.97165 | 36 ft | 6 kts | 219° |
| 2026-05-01 15:19 | 10.30303 | 123.97208 | 36 ft | 8 kts | 134° |
| 2026-05-01 15:19 | 10.30260 | 123.97252 | 36 ft | 8 kts | 135° |
| 2026-05-01 15:20 | 10.30171 | 123.97334 | 36 ft | 6 kts | 141° |
| 2026-05-01 15:20 | 10.30164 | 123.97347 | 36 ft | 2 kts | 67° |
| 2026-05-01 15:20 | 10.30178 | 123.97363 | 36 ft | 4 kts | 45° |
| 2026-05-01 15:21 | 10.30318 | 123.97503 | 36 ft | 70 kts | 45° |
| 2026-05-01 15:21 | 10.30877 | 123.98067 | 52 ft | 150 kts | 44° |
| 2026-05-01 15:21 | 10.31623 | 123.98836 | 804 ft | 156 kts | 45° |
| 2026-05-01 15:21 | 10.32352 | 123.99580 | 1820 ft | 149 kts | 45° |
| 2026-05-01 15:22 | 10.33932 | 124.00906 | 2626 ft | 163 kts | 17° |
| 2026-05-01 15:22 | 10.35124 | 124.00780 | 2905 ft | 187 kts | 338° |
| 2026-05-01 15:22 | 10.36268 | 124.00029 | 3248 ft | 205 kts | 328° |
| 2026-05-01 15:23 | 10.37460 | 123.99123 | 3600 ft | 222 kts | 326° |
| 2026-05-01 15:23 | 10.38743 | 123.98133 | 3882 ft | 244 kts | 326° |
| 2026-05-01 15:23 | 10.40156 | 123.97045 | 4289 ft | 263 kts | 326° |
| 2026-05-01 15:23 | 10.41644 | 123.95897 | 4824 ft | 275 kts | 325° |
| 2026-05-01 15:24 | 10.43195 | 123.94703 | 5552 ft | 280 kts | 325° |
| 2026-05-01 15:24 | 10.44749 | 123.93508 | 6307 ft | 283 kts | 326° |
| 2026-05-01 15:24 | 10.46318 | 123.92303 | 7017 ft | 288 kts | 326° |
| 2026-05-01 15:24 | 10.47919 | 123.91075 | 7703 ft | 292 kts | 326° |
| 2026-05-01 15:25 | 10.49557 | 123.89821 | 8387 ft | 296 kts | 326° |
| 2026-05-01 15:25 | 10.51198 | 123.88563 | 9030 ft | 300 kts | 326° |
| 2026-05-01 15:25 | 10.52886 | 123.87270 | 9681 ft | 303 kts | 326° |
| 2026-05-01 15:25 | 10.54579 | 123.85973 | 10315 ft | 307 kts | 326° |
| 2026-05-01 15:26 | 10.56320 | 123.84642 | 10683 ft | 321 kts | 326° |
| 2026-05-01 15:26 | 10.58152 | 123.83242 | 10955 ft | 336 kts | 326° |
| 2026-05-01 15:26 | 10.60076 | 123.81773 | 11217 ft | 352 kts | 325° |
| 2026-05-01 15:26 | 10.62079 | 123.80239 | 11471 ft | 366 kts | 326° |
| 2026-05-01 15:27 | 10.64137 | 123.78661 | 11708 ft | 380 kts | 325° |
| 2026-05-01 15:27 | 10.66302 | 123.77004 | 11932 ft | 393 kts | 325° |
| 2026-05-01 15:27 | 10.68528 | 123.75298 | 12148 ft | 406 kts | 325° |
| 2026-05-01 15:28 | 10.73107 | 123.71783 | 12970 ft | 416 kts | 325° |
| 2026-05-01 15:28 | 10.75414 | 123.70011 | 13440 ft | 419 kts | 325° |
| 2026-05-01 15:28 | 10.77774 | 123.68200 | 13902 ft | 422 kts | 325° |
| 2026-05-01 15:29 | 10.82484 | 123.64584 | 14776 ft | 428 kts | 324° |
| 2026-05-01 15:29 | 10.84884 | 123.62740 | 15192 ft | 431 kts | 325° |
| 2026-05-01 15:29 | 10.89709 | 123.59032 | 16005 ft | 437 kts | 324° |
| 2026-05-01 15:30 | 10.94578 | 123.55286 | 16766 ft | 442 kts | 324° |
| 2026-05-01 15:31 | 11.04648 | 123.47840 | 18218 ft | 452 kts | 327° |
| 2026-05-01 15:31 | 11.09881 | 123.44198 | 18907 ft | 456 kts | 327° |
| 2026-05-01 15:32 | 11.15142 | 123.40529 | 19578 ft | 460 kts | 327° |
| 2026-05-01 15:32 | 11.20443 | 123.36828 | 20219 ft | 464 kts | 327° |
| 2026-05-01 15:33 | 11.28500 | 123.31194 | 21094 ft | 469 kts | 327° |
| 2026-05-01 15:34 | 11.36618 | 123.25513 | 21910 ft | 474 kts | 327° |